Yulee, Florida
Current Conditions -  °F | °C
As of 9:55 PM on Monday 22 Dec 2014 (Local Time) from KFHB Reporting Station
Thunderstorm Thunderstorm  
Wind Chill: 68°   Ceiling: 1700
Heat Index: 68°   Visibility: 4mi
Dew Point: 66°   Wind: 5mph
Humidity: 94%   Direction: 90°E
Pressure: 29.92"   Gusts: NA
Location:  30.64°N, 81.61°W
Report Text: KFHB 230255Z AUTO 09004KT 4SM TS SCT001 OVC017 20/19 A2992 RMK AO1 LTG DSNT ALQS
Loading
Personal Weather Stations






























Interactive Weather Map New forecast layout! Learn more

10-Day Weather Forecast

Advertisements
Track Severe Weather on mobile